Time;durP1;ratioP1;P1;durP2;ratioP2;P2;SDS_P1;SDS_P2;PMS_P1;PMS_P2;Temp;Humidity;BMP_temperature;BMP_pressure;BME280_temperature;BME280_humidity;BME280_pressure;Samples;Min_cycle;Max_cycle;Signal;HPM_P1;HPM_P2
2023/08/28 00:01:12;;;;;;;5.40;3.37;;;18.10;86.50;;;;;;5056836;28;20469;-59
2023/08/28 00:03:39;;;;;;;4.23;3.10;;;18.00;86.50;;;;;;5056816;28;20446;-59
2023/08/28 00:06:06;;;;;;;4.53;2.93;;;18.00;86.70;;;;;;5057436;28;20460;-59
2023/08/28 00:08:34;;;;;;;2.90;2.70;;;18.00;86.80;;;;;;5056641;28;20441;-59
2023/08/28 00:11:00;;;;;;;3.30;2.97;;;17.90;86.70;;;;;;5056664;28;20958;-59
2023/08/28 00:13:27;;;;;;;3.83;2.73;;;18.00;86.80;;;;;;5057204;28;20523;-59
2023/08/28 00:15:54;;;;;;;3.10;2.90;;;17.90;86.70;;;;;;5057375;28;20824;-60
2023/08/28 00:18:20;;;;;;;4.50;2.80;;;17.90;86.80;;;;;;5056868;28;20445;-59
2023/08/28 00:20:47;;;;;;;2.97;2.80;;;17.80;86.70;;;;;;5056503;28;20437;-60
2023/08/28 00:23:14;;;;;;;3.13;2.93;;;17.80;86.80;;;;;;5056854;28;20426;-59
2023/08/28 00:25:42;;;;;;;9.77;3.40;;;17.80;87.00;;;;;;5056582;28;20449;-59
2023/08/28 00:28:09;;;;;;;3.10;2.70;;;17.70;87.00;;;;;;5056517;28;20457;-59
2023/08/28 00:30:35;;;;;;;3.73;3.30;;;17.70;87.10;;;;;;5056488;28;20449;-59
2023/08/28 00:33:02;;;;;;;5.23;3.27;;;17.70;87.20;;;;;;5056280;28;20507;-59
2023/08/28 00:35:29;;;;;;;2.90;2.77;;;17.70;87.30;;;;;;5056047;28;20947;-59
2023/08/28 00:37:55;;;;;;;3.67;3.27;;;17.70;87.40;;;;;;5056388;28;20813;-59
2023/08/28 00:40:22;;;;;;;2.80;2.60;;;17.60;87.30;;;;;;5056398;28;20915;-59
2023/08/28 00:42:51;;;;;;;4.10;2.90;;;17.60;87.20;;;;;;5056153;28;20461;-59
2023/08/28 00:45:18;;;;;;;3.00;2.80;;;17.60;87.30;;;;;;5055756;28;20947;-59
2023/08/28 00:47:46;;;;;;;3.97;3.60;;;17.60;87.40;;;;;;5056040;28;20453;-59
2023/08/28 00:50:13;;;;;;;4.40;3.97;;;17.50;87.20;;;;;;5056090;28;20449;-59
2023/08/28 00:52:40;;;;;;;4.00;3.70;;;17.40;87.40;;;;;;5055708;28;20509;-59
2023/08/28 00:55:09;;;;;;;3.70;3.40;;;17.40;87.60;;;;;;5055984;28;20446;-59
2023/08/28 00:57:35;;;;;;;6.33;3.60;;;17.40;88.10;;;;;;5055851;28;20445;-59
2023/08/28 01:00:06;;;;;;;3.87;3.47;;;17.40;88.20;;;;;;5055455;28;20951;-59
2023/08/28 01:02:33;;;;;;;5.87;3.07;;;17.40;88.40;;;;;;5055364;28;20968;-60
2023/08/28 01:05:00;;;;;;;3.30;3.10;;;17.30;88.60;;;;;;5055762;28;20445;-59
2023/08/28 01:07:35;;;;;;;7.70;3.33;;;17.30;88.80;;;;;;5055298;28;20446;-59
2023/08/28 01:10:08;;;;;;;3.30;3.00;;;17.40;89.00;;;;;;5055186;28;20429;-59
2023/08/28 01:12:43;;;;;;;4.20;3.80;;;17.30;88.60;;;;;;5056343;28;20495;-59
2023/08/28 01:15:16;;;;;;;3.77;3.37;;;17.30;88.50;;;;;;5055234;28;20908;-59
2023/08/28 01:17:44;;;;;;;10.07;3.53;;;17.30;88.50;;;;;;5055541;28;20437;-59
2023/08/28 01:20:12;;;;;;;5.73;4.73;;;17.20;88.60;;;;;;5055363;28;20446;-59
2023/08/28 01:22:43;;;;;;;5.90;3.10;;;17.20;88.70;;;;;;5054990;28;20465;-59
2023/08/28 01:25:12;;;;;;;3.93;3.37;;;17.20;88.90;;;;;;5055346;28;20802;-59
2023/08/28 01:27:40;;;;;;;3.93;3.17;;;17.20;88.90;;;;;;5055251;28;20473;-59
2023/08/28 01:30:11;;;;;;;4.53;3.40;;;17.20;88.90;;;;;;5055197;28;20473;-59
2023/08/28 01:32:39;;;;;;;3.70;3.50;;;17.20;89.20;;;;;;5055228;28;20493;-59
2023/08/28 01:35:09;;;;;;;3.60;3.30;;;17.10;89.30;;;;;;5054864;28;20448;-59
2023/08/28 01:37:45;;;;;;;4.03;3.50;;;17.10;89.10;;;;;;5055153;28;20437;-59
2023/08/28 01:40:15;;;;;;;7.63;4.40;;;17.10;89.50;;;;;;5055087;28;20429;-59
2023/08/28 01:42:44;;;;;;;3.53;3.10;;;17.00;89.70;;;;;;5055015;28;21010;-59
2023/08/28 01:45:11;;;;;;;4.37;2.90;;;17.00;90.00;;;;;;5054968;28;20450;-59
2023/08/28 01:47:38;;;;;;;4.17;3.20;;;17.00;89.80;;;;;;5054858;28;20456;-59
2023/08/28 01:50:07;;;;;;;3.87;3.47;;;17.00;89.80;;;;;;5055790;28;20449;-59
2023/08/28 01:52:34;;;;;;;4.03;3.67;;;17.00;89.80;;;;;;5054671;28;20489;-59
2023/08/28 01:55:01;;;;;;;5.20;3.33;;;17.00;90.00;;;;;;5054286;28;20939;-59
2023/08/28 01:57:29;;;;;;;4.70;3.37;;;17.00;89.80;;;;;;5054560;28;20449;-59
2023/08/28 01:59:56;;;;;;;4.10;3.10;;;16.90;89.80;;;;;;5054814;28;20446;-59
2023/08/28 02:02:23;;;;;;;3.93;3.30;;;16.90;89.80;;;;;;5054383;28;20465;-59
2023/08/28 02:04:49;;;;;;;3.13;2.80;;;16.90;90.20;;;;;;5054447;28;20442;-59
2023/08/28 02:07:16;;;;;;;5.67;2.63;;;16.90;90.10;;;;;;5054210;28;20449;-60
2023/08/28 02:09:43;;;;;;;5.40;3.40;;;16.90;90.20;;;;;;5054276;28;20944;-59
2023/08/28 02:12:09;;;;;;;4.60;3.00;;;16.90;90.40;;;;;;5054340;28;20489;-59
2023/08/28 02:14:37;;;;;;;4.40;3.20;;;16.90;90.30;;;;;;5054393;28;20441;-59
2023/08/28 02:17:04;;;;;;;3.80;3.33;;;16.90;90.20;;;;;;5054676;28;20442;-60
2023/08/28 02:19:31;;;;;;;4.80;3.53;;;16.80;90.20;;;;;;5054731;28;20446;-59
2023/08/28 02:21:58;;;;;;;3.50;3.20;;;16.80;90.20;;;;;;5053151;28;20535;-60
2023/08/28 02:24:24;;;;;;;4.60;2.90;;;16.80;90.30;;;;;;5054309;28;20453;-59
2023/08/28 02:26:51;;;;;;;3.50;3.20;;;16.80;90.40;;;;;;5054190;28;20441;-59
2023/08/28 02:29:18;;;;;;;2.97;2.73;;;16.80;90.70;;;;;;5054137;28;20449;-59
2023/08/28 02:31:46;;;;;;;3.07;2.77;;;16.80;90.40;;;;;;5053741;28;20469;-59
2023/08/28 02:34:12;;;;;;;3.97;2.70;;;16.70;90.40;;;;;;5053733;28;21017;-59
2023/08/28 02:36:39;;;;;;;3.20;2.90;;;16.70;90.40;;;;;;5054007;28;20442;-59
2023/08/28 02:39:06;;;;;;;3.37;3.07;;;16.70;90.40;;;;;;5054055;28;20450;-59
2023/08/28 02:41:32;;;;;;;3.87;3.47;;;16.60;90.70;;;;;;5053895;28;20836;-60
2023/08/28 02:43:59;;;;;;;6.40;3.20;;;16.60;90.90;;;;;;5053583;28;20823;-59
2023/08/28 02:46:26;;;;;;;4.77;3.40;;;16.60;90.90;;;;;;5053500;28;20940;-59
2023/08/28 02:48:54;;;;;;;4.63;3.53;;;16.50;90.90;;;;;;5054357;28;20446;-60
2023/08/28 02:51:20;;;;;;;3.67;3.37;;;16.50;90.90;;;;;;5053575;28;20564;-59
2023/08/28 02:53:47;;;;;;;3.67;3.37;;;16.50;91.20;;;;;;5053652;28;20480;-59
2023/08/28 02:56:24;;;;;;;3.90;3.37;;;16.50;91.10;;;;;;5053630;28;20446;-59
2023/08/28 02:58:52;;;;;;;5.20;3.27;;;16.40;91.10;;;;;;5053683;28;20430;-59
2023/08/28 03:01:19;;;;;;;3.50;3.20;;;16.40;91.30;;;;;;5053487;28;20469;-59
2023/08/28 03:03:46;;;;;;;4.13;3.20;;;16.40;91.40;;;;;;5053470;28;20473;-59
2023/08/28 03:06:15;;;;;;;6.07;3.70;;;16.40;91.60;;;;;;5053614;28;20446;-59
2023/08/28 03:08:41;;;;;;;3.93;3.50;;;16.40;91.70;;;;;;5053480;28;20446;-59
2023/08/28 03:11:08;;;;;;;3.93;3.07;;;16.40;91.80;;;;;;5053343;28;20469;-59
2023/08/28 03:13:35;;;;;;;3.57;3.27;;;16.40;91.80;;;;;;5053279;28;20481;-59
2023/08/28 03:16:02;;;;;;;3.30;3.00;;;16.40;91.60;;;;;;5053444;28;20450;-59
2023/08/28 03:18:29;;;;;;;3.17;2.97;;;16.40;91.60;;;;;;5053294;28;20544;-59
2023/08/28 03:20:56;;;;;;;5.73;3.00;;;16.40;91.60;;;;;;5052778;28;20835;-59
2023/08/28 03:23:24;;;;;;;3.60;3.10;;;16.40;91.40;;;;;;5053364;28;20748;-59
2023/08/28 03:25:51;;;;;;;5.60;3.00;;;16.50;91.30;;;;;;5053312;28;20437;-59
2023/08/28 03:28:17;;;;;;;4.40;2.60;;;16.40;91.10;;;;;;5053812;28;20480;-59
2023/08/28 03:30:44;;;;;;;3.73;2.80;;;16.40;91.00;;;;;;5053937;28;20449;-59
2023/08/28 03:33:11;;;;;;;3.00;2.80;;;16.40;90.90;;;;;;5056530;28;20485;-59
2023/08/28 03:35:37;;;;;;;4.70;2.77;;;16.40;90.90;;;;;;5058075;28;20437;-59
2023/08/28 03:38:05;;;;;;;3.73;3.23;;;16.30;90.80;;;;;;5058009;28;20446;-59
2023/08/28 03:40:34;;;;;;;5.23;3.10;;;16.30;91.20;;;;;;5057636;28;20441;-59
2023/08/28 03:43:01;;;;;;;3.03;2.73;;;16.30;91.70;;;;;;5057441;28;20464;-59
2023/08/28 03:45:28;;;;;;;4.80;3.80;;;16.30;91.40;;;;;;5057277;28;20437;-59
2023/08/28 03:47:54;;;;;;;3.17;2.50;;;16.20;91.30;;;;;;5057264;28;20444;-59
2023/08/28 03:50:21;;;;;;;4.03;3.63;;;16.30;91.40;;;;;;5057114;28;20441;-58
2023/08/28 03:52:48;;;;;;;4.47;2.90;;;16.30;91.60;;;;;;5056958;28;20855;-58
2023/08/28 03:55:14;;;;;;;4.90;3.30;;;16.30;91.70;;;;;;5056537;28;20958;-59
2023/08/28 03:57:43;;;;;;;6.27;3.77;;;16.20;91.80;;;;;;5056863;28;20923;-58
2023/08/28 04:00:13;;;;;;;3.53;3.23;;;16.20;92.10;;;;;;5057585;28;20452;-58
2023/08/28 04:02:39;;;;;;;4.07;3.03;;;16.20;92.40;;;;;;5058076;28;20465;-59
2023/08/28 04:05:08;;;;;;;4.30;3.87;;;16.20;92.60;;;;;;5057945;28;20449;-59
2023/08/28 04:07:35;;;;;;;9.50;5.10;;;16.20;92.70;;;;;;5056958;28;20442;-59
2023/08/28 04:10:02;;;;;;;5.10;3.90;;;16.20;92.70;;;;;;5056969;28;20442;-59
2023/08/28 04:12:29;;;;;;;4.93;3.60;;;16.10;92.60;;;;;;5058073;28;20468;-59
2023/08/28 04:14:57;;;;;;;4.90;3.63;;;16.10;92.60;;;;;;5056801;28;20842;-59
2023/08/28 04:17:24;;;;;;;4.10;3.70;;;16.10;92.60;;;;;;5056841;28;20468;-58
2023/08/28 04:19:52;;;;;;;6.43;3.47;;;16.10;92.60;;;;;;5056871;28;20437;-58
2023/08/28 04:22:18;;;;;;;3.87;3.57;;;16.10;92.60;;;;;;5056465;28;20483;-58
2023/08/28 04:24:46;;;;;;;4.87;3.10;;;16.10;92.50;;;;;;5056698;28;20512;-59
2023/08/28 04:27:13;;;;;;;3.03;2.83;;;16.00;92.50;;;;;;5056531;28;20468;-59
2023/08/28 04:29:41;;;;;;;3.50;3.20;;;16.10;92.50;;;;;;5056836;28;20441;-59
2023/08/28 04:32:09;;;;;;;4.53;3.00;;;16.00;92.40;;;;;;5056619;28;20559;-59
2023/08/28 04:34:36;;;;;;;6.90;3.93;;;16.00;92.40;;;;;;5055888;28;21014;-59
2023/08/28 04:37:03;;;;;;;4.30;3.60;;;16.00;92.30;;;;;;5056299;28;20441;-59
2023/08/28 04:39:30;;;;;;;3.87;3.47;;;16.00;92.20;;;;;;5056174;28;20452;-59
2023/08/28 04:41:56;;;;;;;4.70;3.50;;;15.90;92.10;;;;;;5055866;28;20473;-59
2023/08/28 04:44:23;;;;;;;10.00;3.10;;;15.90;92.40;;;;;;5055327;28;20826;-59
2023/08/28 04:46:50;;;;;;;4.60;3.37;;;16.00;91.90;;;;;;5056036;28;20441;-58
2023/08/28 04:49:18;;;;;;;4.00;3.70;;;16.00;91.90;;;;;;5056016;28;20441;-58
2023/08/28 04:51:45;;;;;;;4.27;3.20;;;16.00;92.00;;;;;;5055940;28;20473;-58
2023/08/28 04:54:11;;;;;;;4.70;3.70;;;15.90;92.10;;;;;;5056055;28;20485;-59
2023/08/28 04:56:38;;;;;;;5.27;3.17;;;16.00;92.30;;;;;;5056002;28;20456;-58
2023/08/28 04:59:05;;;;;;;4.73;4.27;;;16.00;92.60;;;;;;5056206;28;20449;-59
2023/08/28 05:01:32;;;;;;;3.40;3.10;;;16.00;92.70;;;;;;5055749;28;20469;-59
2023/08/28 05:03:59;;;;;;;3.70;3.40;;;16.00;92.60;;;;;;5055943;28;20446;-58
2023/08/28 05:06:27;;;;;;;4.30;3.13;;;16.00;92.60;;;;;;5055854;28;20441;-58
2023/08/28 05:08:53;;;;;;;3.77;3.00;;;16.10;92.50;;;;;;5055521;28;20437;-58
2023/08/28 05:11:20;;;;;;;6.50;3.27;;;16.10;92.40;;;;;;5055801;28;20457;-58
2023/08/28 05:13:47;;;;;;;4.00;3.60;;;16.10;92.50;;;;;;5055569;28;20481;-58
2023/08/28 05:16:13;;;;;;;4.33;3.90;;;16.10;93.00;;;;;;5055482;28;20450;-58
2023/08/28 05:18:40;;;;;;;5.83;3.23;;;16.10;92.70;;;;;;5055203;28;20943;-58
2023/08/28 05:21:07;;;;;;;4.23;3.60;;;16.00;92.90;;;;;;5055130;28;20489;-58
2023/08/28 05:23:35;;;;;;;4.20;3.90;;;16.00;93.00;;;;;;5055443;28;20423;-58
2023/08/28 05:26:01;;;;;;;6.33;4.20;;;16.00;93.20;;;;;;5055318;28;20442;-58
2023/08/28 05:28:31;;;;;;;6.17;3.70;;;16.00;93.30;;;;;;5055314;28;20446;-58
2023/08/28 05:30:58;;;;;;;6.07;3.67;;;16.00;93.60;;;;;;5055277;28;20575;-59
2023/08/28 05:33:24;;;;;;;4.77;3.10;;;16.00;93.80;;;;;;5055365;28;20481;-59
2023/08/28 05:35:51;;;;;;;8.60;4.03;;;16.00;93.90;;;;;;5055103;28;20446;-59
2023/08/28 05:38:18;;;;;;;3.57;3.27;;;16.10;94.00;;;;;;5055123;28;20445;-59
2023/08/28 05:40:46;;;;;;;5.97;3.20;;;16.10;94.00;;;;;;5054637;28;20454;-59
2023/08/28 05:43:13;;;;;;;7.50;3.23;;;16.20;94.10;;;;;;5054665;28;20948;-59
2023/08/28 05:45:40;;;;;;;4.80;3.70;;;16.20;94.20;;;;;;5055001;28;20450;-59
2023/08/28 05:48:07;;;;;;;5.57;3.77;;;16.20;94.20;;;;;;5054888;28;20442;-59
2023/08/28 05:50:36;;;;;;;8.03;4.77;;;16.20;94.40;;;;;;5054884;28;20449;-59
2023/08/28 05:53:03;;;;;;;5.03;3.90;;;16.20;94.60;;;;;;5054554;28;20497;-59
2023/08/28 05:55:30;;;;;;;5.93;4.13;;;16.30;94.60;;;;;;5054365;28;20806;-59
2023/08/28 05:57:58;;;;;;;4.53;4.10;;;16.30;94.70;;;;;;5054720;28;20469;-59
2023/08/28 06:00:26;;;;;;;5.47;3.67;;;16.30;94.80;;;;;;5055207;28;20442;-59
2023/08/28 06:02:52;;;;;;;4.40;4.10;;;16.30;94.70;;;;;;5054534;28;20511;-59
2023/08/28 06:05:19;;;;;;;4.50;3.60;;;16.30;94.90;;;;;;5054739;28;20438;-59
2023/08/28 06:07:46;;;;;;;4.20;3.70;;;16.40;94.90;;;;;;5054520;28;20441;-59
2023/08/28 06:10:17;;;;;;;3.97;3.50;;;16.40;95.00;;;;;;5054492;28;20445;-59
2023/08/28 06:12:44;;;;;;;5.30;4.27;;;16.40;95.00;;;;;;5054375;28;20480;-59
2023/08/28 06:15:13;;;;;;;4.70;4.07;;;16.40;95.00;;;;;;5053834;28;20478;-59
2023/08/28 06:17:40;;;;;;;5.00;3.40;;;16.50;95.10;;;;;;5054315;28;20537;-59
2023/08/28 06:20:09;;;;;;;5.67;3.70;;;16.60;95.20;;;;;;5054272;28;20450;-59
2023/08/28 06:22:36;;;;;;;4.63;3.80;;;16.60;95.20;;;;;;5054097;28;20477;-59
2023/08/28 06:25:03;;;;;;;4.60;3.57;;;16.60;95.10;;;;;;5054160;28;20452;-59
2023/08/28 06:27:30;;;;;;;9.97;4.43;;;16.70;95.30;;;;;;5054145;28;20450;-58
2023/08/28 06:29:56;;;;;;;4.60;3.50;;;16.70;95.40;;;;;;5054071;28;20453;-59
2023/08/28 06:32:24;;;;;;;5.60;4.00;;;16.80;95.40;;;;;;5054014;28;20824;-58
2023/08/28 06:34:51;;;;;;;4.97;4.10;;;16.80;95.30;;;;;;5053965;28;20486;-58
2023/08/28 06:37:18;;;;;;;9.63;4.00;;;16.80;95.30;;;;;;5053880;28;20448;-58
2023/08/28 06:39:44;;;;;;;5.47;4.17;;;16.90;95.20;;;;;;5054052;28;20445;-58
2023/08/28 06:42:11;;;;;;;9.20;4.67;;;16.90;95.30;;;;;;5053802;28;20470;-59
2023/08/28 06:44:38;;;;;;;9.40;3.97;;;17.00;95.40;;;;;;5054327;28;20438;-58
2023/08/28 06:47:05;;;;;;;4.80;3.87;;;17.10;95.40;;;;;;5054221;28;20465;-58
2023/08/28 06:49:33;;;;;;;5.87;3.90;;;17.10;95.40;;;;;;5053966;28;20441;-58
2023/08/28 06:52:00;;;;;;;6.87;5.27;;;17.10;95.20;;;;;;5053886;28;20465;-58
2023/08/28 06:54:26;;;;;;;15.17;5.67;;;17.20;95.30;;;;;;5053380;28;20991;-58
2023/08/28 06:56:53;;;;;;;10.53;4.60;;;17.20;95.40;;;;;;5053662;28;20445;-58
2023/08/28 06:59:20;;;;;;;7.10;4.37;;;17.20;95.20;;;;;;5053592;28;20449;-58
2023/08/28 07:01:46;;;;;;;5.43;4.80;;;17.30;95.50;;;;;;5053538;28;20459;-58
2023/08/28 07:04:13;;;;;;;7.00;5.10;;;17.40;95.50;;;;;;5053279;28;20442;-58
2023/08/28 07:06:41;;;;;;;7.63;5.47;;;17.40;95.30;;;;;;5053133;28;20445;-58
2023/08/28 07:09:08;;;;;;;6.53;4.40;;;17.50;94.80;;;;;;5053428;28;20445;-58
2023/08/28 07:11:35;;;;;;;6.90;5.20;;;17.50;94.70;;;;;;5053244;28;20461;-59
2023/08/28 07:14:02;;;;;;;5.60;4.13;;;17.50;94.80;;;;;;5053352;28;20484;-59
2023/08/28 07:16:29;;;;;;;4.80;4.10;;;17.60;94.70;;;;;;5053364;28;20441;-58
2023/08/28 07:18:56;;;;;;;6.00;5.00;;;17.70;94.80;;;;;;5053380;28;20437;-58
2023/08/28 07:21:22;;;;;;;5.27;4.77;;;17.70;94.50;;;;;;5053063;28;20530;-59
2023/08/28 07:23:51;;;;;;;4.93;4.30;;;17.80;94.90;;;;;;5053034;28;20453;-59
2023/08/28 07:26:18;;;;;;;5.17;4.67;;;17.90;94.70;;;;;;5053491;28;20445;-59
2023/08/28 07:28:46;;;;;;;5.83;4.53;;;18.00;94.70;;;;;;5053300;28;20445;-59
2023/08/28 07:31:13;;;;;;;6.07;5.17;;;18.20;94.90;;;;;;5053183;28;20473;-59
2023/08/28 07:33:39;;;;;;;5.10;4.63;;;18.30;94.20;;;;;;5053425;28;20438;-59
2023/08/28 07:36:07;;;;;;;6.30;5.10;;;18.30;93.30;;;;;;5053218;28;20450;-59
2023/08/28 07:38:33;;;;;;;7.23;5.63;;;18.30;93.30;;;;;;5053202;28;20442;-59
2023/08/28 07:41:01;;;;;;;5.53;4.47;;;18.40;93.40;;;;;;5052739;28;20958;-59
2023/08/28 07:43:28;;;;;;;6.83;5.27;;;18.50;94.00;;;;;;5052985;28;20452;-59
2023/08/28 07:45:55;;;;;;;7.87;5.60;;;18.60;94.10;;;;;;5053128;28;20450;-59
2023/08/28 07:48:23;;;;;;;7.83;6.07;;;18.80;93.00;;;;;;5053041;28;20481;-59
2023/08/28 07:50:50;;;;;;;10.07;5.70;;;18.90;92.70;;;;;;5053041;28;20449;-59
2023/08/28 07:53:16;;;;;;;6.07;5.00;;;18.90;92.20;;;;;;5053059;28;20445;-59
2023/08/28 07:55:43;;;;;;;6.13;5.30;;;19.10;92.50;;;;;;5052574;28;20878;-59
2023/08/28 07:58:11;;;;;;;6.80;5.33;;;19.20;92.30;;;;;;5064619;28;20475;-59
2023/08/28 08:00:40;;;;;;;7.50;5.27;;;19.30;91.70;;;;;;5073013;28;20452;-59
2023/08/28 08:03:07;;;;;;;6.50;4.90;;;19.40;91.20;;;;;;5073066;28;20573;-59
2023/08/28 08:05:33;;;;;;;7.90;5.50;;;19.40;91.20;;;;;;5073129;28;20433;-59
2023/08/28 08:08:00;;;;;;;8.30;5.40;;;19.60;91.30;;;;;;5073257;28;20441;-59
2023/08/28 08:10:27;;;;;;;6.77;4.50;;;19.70;91.00;;;;;;5072911;28;20449;-59
2023/08/28 08:12:54;;;;;;;7.97;5.73;;;19.80;90.70;;;;;;5072833;28;20484;-59
2023/08/28 08:15:22;;;;;;;7.30;5.63;;;19.90;90.10;;;;;;5072994;28;20476;-59
2023/08/28 08:17:48;;;;;;;4.30;3.90;;;20.10;90.20;;;;;;5072440;28;20946;-59
2023/08/28 08:20:16;;;;;;;14.17;5.87;;;20.10;90.20;;;;;;5075559;28;20451;-59
2023/08/28 08:22:43;;;;;;;9.33;5.50;;;20.30;90.20;;;;;;5076025;28;20516;-60
2023/08/28 08:25:10;;;;;;;7.67;5.57;;;20.50;89.40;;;;;;5076452;28;20433;-60
2023/08/28 08:27:38;;;;;;;6.97;5.10;;;20.60;88.60;;;;;;5076151;28;20492;-60
2023/08/28 08:30:07;;;;;;;9.43;6.47;;;20.80;88.00;;;;;;5076408;28;20443;-60
2023/08/28 08:32:35;;;;;;;5.23;4.73;;;20.90;87.20;;;;;;5076257;28;20512;-60
2023/08/28 08:35:05;;;;;;;5.63;5.00;;;21.00;86.00;;;;;;5076299;28;20542;-59
2023/08/28 08:37:32;;;;;;;5.23;4.73;;;21.20;85.50;;;;;;5076345;28;20531;-60
2023/08/28 08:39:58;;;;;;;8.43;5.20;;;21.30;84.70;;;;;;5076357;28;20437;-60
2023/08/28 08:42:25;;;;;;;4.97;4.47;;;21.40;84.00;;;;;;5076230;28;20487;-60
2023/08/28 08:44:52;;;;;;;7.53;4.80;;;21.40;83.30;;;;;;5076372;28;20444;-59
2023/08/28 08:47:19;;;;;;;5.83;4.23;;;21.50;82.10;;;;;;5076196;28;20449;-59
2023/08/28 08:49:53;;;;;;;10.20;4.37;;;21.60;82.50;;;;;;5076021;28;20455;-60
2023/08/28 08:52:22;;;;;;;5.37;4.53;;;21.70;82.60;;;;;;5076076;28;20464;-59
2023/08/28 08:54:54;;;;;;;5.27;4.10;;;21.80;81.00;;;;;;5075844;28;20480;-59
2023/08/28 08:57:27;;;;;;;5.83;3.80;;;21.90;80.90;;;;;;5075919;28;20440;-60
2023/08/28 08:59:55;;;;;;;5.10;4.50;;;22.10;80.00;;;;;;5075534;28;20437;-59
2023/08/28 09:02:21;;;;;;;5.37;4.87;;;22.20;79.40;;;;;;5075682;28;20468;-60
2023/08/28 09:04:50;;;;;;;5.33;4.50;;;22.40;79.10;;;;;;5075741;28;20441;-59
2023/08/28 09:07:18;;;;;;;3.23;2.93;;;22.60;79.10;;;;;;5075705;28;20958;-60
2023/08/28 09:09:45;;;;;;;3.23;2.60;;;22.80;77.30;;;;;;5075415;28;20906;-60
2023/08/28 09:12:13;;;;;;;4.50;3.07;;;23.00;76.40;;;;;;5075541;28;20488;-60
2023/08/28 09:14:40;;;;;;;5.90;3.20;;;23.30;75.00;;;;;;5074987;28;21085;-60
2023/08/28 09:17:07;;;;;;;4.33;2.60;;;23.60;72.90;;;;;;5075534;28;20444;-59
2023/08/28 09:19:35;;;;;;;5.77;3.10;;;23.70;70.20;;;;;;5075490;28;20443;-59
2023/08/28 09:22:04;;;;;;;7.20;3.40;;;23.70;70.40;;;;;;5075182;28;20476;-60
2023/08/28 09:24:31;;;;;;;3.63;3.07;;;23.80;71.60;;;;;;5075428;28;20452;-60
2023/08/28 09:26:57;;;;;;;5.33;2.93;;;23.80;69.80;;;;;;5075443;28;20449;-59
2023/08/28 09:29:25;;;;;;;3.17;2.33;;;23.90;70.10;;;;;;5075095;28;20494;-59
2023/08/28 09:32:00;;;;;;;4.90;3.33;;;24.00;70.00;;;;;;5074971;28;21015;-60
2023/08/28 09:34:38;;;;;;;3.30;3.00;;;24.00;68.30;;;;;;5074871;28;21066;-60
2023/08/28 09:37:09;;;;;;;5.57;3.00;;;23.90;68.50;;;;;;5075155;28;20519;-60
2023/08/28 09:39:40;;;;;;;3.60;2.20;;;23.90;68.80;;;;;;5074804;28;20919;-60
2023/08/28 09:42:08;;;;;;;4.80;2.70;;;23.90;67.30;;;;;;5075059;28;20901;-60
2023/08/28 09:44:37;;;;;;;5.30;3.10;;;23.80;68.60;;;;;;5075486;28;20452;-59
2023/08/28 09:47:05;;;;;;;2.50;2.30;;;23.80;67.80;;;;;;5075603;28;20452;-59
2023/08/28 09:49:32;;;;;;;6.47;3.40;;;23.80;68.00;;;;;;5075120;28;20441;-60
2023/08/28 09:52:00;;;;;;;3.10;2.73;;;23.90;69.00;;;;;;5074997;28;20473;-60
2023/08/28 09:54:28;;;;;;;3.40;2.27;;;24.00;68.80;;;;;;5074940;28;20494;-60
2023/08/28 09:56:54;;;;;;;4.60;1.90;;;24.20;67.20;;;;;;5075859;28;20448;-60
2023/08/28 09:59:21;;;;;;;3.30;2.10;;;24.20;66.80;;;;;;5074776;28;20547;-60
2023/08/28 10:01:48;;;;;;;5.17;2.90;;;24.20;67.30;;;;;;5074692;28;20460;-60
2023/08/28 10:04:19;;;;;;;4.37;2.60;;;24.30;68.00;;;;;;5074720;28;20482;-59
2023/08/28 10:06:49;;;;;;;2.50;2.00;;;24.30;67.80;;;;;;5074924;28;20429;-60
2023/08/28 10:09:19;;;;;;;3.20;2.07;;;24.30;65.90;;;;;;5074592;28;20441;-59
2023/08/28 10:11:50;;;;;;;4.73;1.97;;;24.30;66.00;;;;;;5074475;28;20518;-60
2023/08/28 10:14:18;;;;;;;2.10;1.60;;;24.30;65.50;;;;;;5074388;28;20425;-60
2023/08/28 10:16:48;;;;;;;4.17;2.10;;;24.40;66.40;;;;;;5074408;28;20449;-59
2023/08/28 10:19:20;;;;;;;4.00;1.97;;;24.50;64.70;;;;;;5074145;28;20455;-58
2023/08/28 10:21:48;;;;;;;1.83;1.73;;;24.60;64.10;;;;;;5074169;28;20476;-58
2023/08/28 10:24:16;;;;;;;2.93;2.10;;;24.60;63.60;;;;;;5074496;28;20432;-58
2023/08/28 10:26:43;;;;;;;2.93;2.60;;;24.50;62.90;;;;;;5074104;28;20445;-58
2023/08/28 10:29:12;;;;;;;11.43;4.10;;;24.40;63.90;;;;;;5073790;28;20961;-59
2023/08/28 10:31:40;;;;;;;5.37;2.80;;;24.30;64.80;;;;;;5074076;28;20465;-59
2023/08/28 10:34:09;;;;;;;4.37;2.20;;;24.30;65.50;;;;;;5074094;28;20440;-59
2023/08/28 10:36:37;;;;;;;4.80;2.53;;;24.40;66.50;;;;;;5073988;28;20508;-59
2023/08/28 10:39:04;;;;;;;2.80;2.40;;;24.50;65.00;;;;;;5073948;28;20462;-59
2023/08/28 10:41:32;;;;;;;6.07;2.80;;;24.60;64.90;;;;;;5073196;28;20461;-59
2023/08/28 10:44:01;;;;;;;5.83;2.83;;;24.60;63.90;;;;;;5073901;28;20455;-58
2023/08/28 10:46:29;;;;;;;7.23;2.90;;;24.60;63.50;;;;;;5073860;28;20875;-58
2023/08/28 10:48:57;;;;;;;3.53;2.87;;;24.60;64.10;;;;;;5073828;28;20451;-58
2023/08/28 10:51:31;;;;;;;4.43;2.47;;;24.60;64.30;;;;;;5073548;28;21047;-59
2023/08/28 10:54:01;;;;;;;3.97;2.67;;;24.70;63.60;;;;;;5073864;28;20487;-59
2023/08/28 10:56:31;;;;;;;3.10;2.20;;;24.90;62.30;;;;;;5073544;28;20484;-59
2023/08/28 10:59:21;;;;;;;4.60;2.47;;;25.00;60.90;;;;;;5073707;28;20460;-58
2023/08/28 11:01:57;;;;;;;7.57;2.60;;;25.20;61.10;;;;;;5073578;28;20461;-58
2023/08/28 11:04:24;;;;;;;3.37;1.57;;;25.40;60.50;;;;;;5073534;28;20490;-59
2023/08/28 11:06:51;;;;;;;5.03;2.40;;;25.70;58.70;;;;;;5073551;28;20440;-59
2023/08/28 11:09:39;;;;;;;2.10;1.00;;;26.00;58.20;;;;;;5073363;28;20448;-58
2023/08/28 11:12:27;;;;;;;3.60;1.17;;;26.10;55.80;;;;;;5073461;28;20566;-59
2023/08/28 11:14:59;;;;;;;1.43;0.97;;;26.40;55.30;;;;;;5073086;28;20934;-58
2023/08/28 11:17:30;;;;;;;1.30;0.87;;;26.60;53.70;;;;;;5073407;28;20444;-58
2023/08/28 11:20:11;;;;;;;1.80;0.67;;;26.90;52.20;;;;;;5073320;28;20445;-59
2023/08/28 11:22:39;;;;;;;0.83;0.83;;;27.30;51.10;;;;;;5072923;28;20563;-59
2023/08/28 11:25:09;;;;;;;2.83;1.27;;;27.70;50.30;;;;;;5072954;28;20814;-59
2023/08/28 11:27:43;;;;;;;2.57;0.90;;;28.00;50.10;;;;;;5073247;28;20550;-59
2023/08/28 11:30:11;;;;;;;3.30;0.80;;;28.30;48.90;;;;;;5073344;28;20463;-59
2023/08/28 11:32:40;;;;;;;1.03;0.93;;;28.70;47.70;;;;;;5073287;28;20513;-59
2023/08/28 11:35:09;;;;;;;3.37;1.07;;;29.30;46.80;;;;;;5073119;28;20487;-59
2023/08/28 11:37:37;;;;;;;4.43;1.30;;;29.90;46.30;;;;;;5073126;28;20451;-59
2023/08/28 11:40:06;;;;;;;2.90;1.17;;;30.50;45.40;;;;;;5073209;28;20446;-59
2023/08/28 11:42:33;;;;;;;1.40;0.80;;;30.90;42.80;;;;;;5072820;28;20468;-59
2023/08/28 11:45:00;;;;;;;2.20;1.10;;;31.10;41.60;;;;;;5073200;28;20440;-59
2023/08/28 11:47:28;;;;;;;4.30;1.40;;;31.30;41.80;;;;;;5072940;28;20936;-59
2023/08/28 11:49:56;;;;;;;1.47;1.37;;;31.50;41.50;;;;;;5073087;28;20444;-59
2023/08/28 11:52:24;;;;;;;2.40;1.47;;;31.60;41.20;;;;;;5073022;28;20460;-59
2023/08/28 11:54:52;;;;;;;4.63;1.60;;;31.60;40.20;;;;;;5076588;28;20929;-59
2023/08/28 11:57:21;;;;;;;1.93;1.30;;;31.50;40.20;;;;;;5077036;28;20483;-59
2023/08/28 11:59:49;;;;;;;1.37;1.10;;;31.40;40.50;;;;;;5078336;28;20443;-60
2023/08/28 12:02:16;;;;;;;1.20;1.10;;;31.50;39.70;;;;;;5078718;28;20491;-64
2023/08/28 12:04:44;;;;;;;1.60;1.23;;;31.50;39.40;;;;;;5077820;28;20455;-59
2023/08/28 12:07:18;;;;;;;1.20;0.80;;;31.40;39.40;;;;;;5076906;28;20436;-59
2023/08/28 12:09:47;;;;;;;4.27;1.30;;;31.40;39.80;;;;;;5076786;28;20450;-59
2023/08/28 12:12:14;;;;;;;1.40;0.90;;;31.50;39.50;;;;;;5076693;28;20471;-59
2023/08/28 12:14:44;;;;;;;1.10;0.80;;;31.80;38.90;;;;;;5076409;28;20793;-59
2023/08/28 12:17:14;;;;;;;1.37;1.20;;;32.00;38.60;;;;;;5076507;28;20515;-59
2023/08/28 12:19:41;;;;;;;1.23;0.90;;;32.40;36.50;;;;;;5076193;28;20459;-59
2023/08/28 12:22:10;;;;;;;1.13;0.80;;;32.50;35.30;;;;;;5076154;28;20504;-59
2023/08/28 12:24:41;;;;;;;1.30;1.20;;;32.60;34.50;;;;;;5076451;28;20447;-59
2023/08/28 12:27:09;;;;;;;2.47;1.30;;;32.60;34.10;;;;;;5076234;28;20898;-59
2023/08/28 12:29:36;;;;;;;1.20;1.10;;;32.40;34.00;;;;;;5076326;28;20488;-59
2023/08/28 12:32:06;;;;;;;1.33;0.90;;;32.20;34.90;;;;;;5076455;28;20466;-59
2023/08/28 12:34:34;;;;;;;2.00;0.80;;;32.00;35.50;;;;;;5076353;28;20466;-59
2023/08/28 12:37:05;;;;;;;3.03;1.30;;;32.20;36.30;;;;;;5076365;28;20486;-59
2023/08/28 12:39:32;;;;;;;3.17;1.33;;;32.90;33.30;;;;;;5076864;28;20448;-59
2023/08/28 12:42:02;;;;;;;1.60;0.93;;;33.20;33.00;;;;;;5076158;28;20800;-59
2023/08/28 12:44:29;;;;;;;1.03;0.80;;;33.40;33.60;;;;;;5076033;28;20941;-59
2023/08/28 12:46:57;;;;;;;3.23;1.30;;;33.50;34.50;;;;;;5076456;28;20494;-59
2023/08/28 12:49:24;;;;;;;2.17;1.23;;;33.80;34.10;;;;;;5076490;28;20440;-59